createdAt,value
2023-04-28T00:02:27.081Z,13.34
2023-04-28T00:04:55.305Z,13.41
2023-04-28T00:07:25.254Z,13.40
2023-04-28T00:09:52.943Z,13.59
2023-04-28T00:12:20.663Z,13.54
2023-04-28T00:14:48.413Z,13.60
2023-04-28T00:17:16.176Z,13.74
2023-04-28T00:19:43.846Z,13.77
2023-04-28T00:22:11.577Z,13.89
2023-04-28T00:24:41.808Z,13.85
2023-04-28T00:27:09.410Z,13.55
2023-04-28T00:29:37.727Z,13.15
2023-04-28T00:32:05.455Z,12.82
2023-04-28T00:34:37.271Z,12.45
2023-04-28T00:37:05.142Z,12.35
2023-04-28T00:39:32.895Z,12.14
2023-04-28T00:42:02.272Z,11.93
2023-04-28T00:44:29.990Z,11.72
2023-04-28T00:47:00.160Z,11.53
2023-04-28T00:49:28.050Z,11.55
2023-04-28T00:51:55.768Z,11.54
2023-04-28T00:54:23.564Z,11.68
2023-04-28T00:56:51.709Z,11.66
2023-04-28T00:59:20.625Z,11.72
2023-04-28T01:01:48.942Z,11.79
2023-04-28T01:04:18.293Z,11.62
2023-04-28T01:06:47.886Z,11.80
2023-04-28T01:09:15.618Z,11.85
2023-04-28T01:11:43.453Z,11.87
2023-04-28T01:14:12.508Z,11.94
2023-04-28T01:16:44.267Z,11.79
2023-04-28T01:19:18.841Z,12.09
2023-04-28T01:21:46.694Z,12.09
2023-04-28T01:24:21.565Z,12.26
2023-04-28T01:26:49.187Z,12.30
2023-04-28T01:29:16.814Z,12.32
2023-04-28T01:31:44.535Z,12.36
2023-04-28T01:34:12.189Z,12.44
2023-04-28T01:36:39.871Z,12.45
2023-04-28T01:39:08.115Z,12.32
2023-04-28T01:41:37.095Z,12.52
2023-04-28T01:44:08.148Z,12.62
2023-04-28T01:46:36.368Z,12.73
2023-04-28T01:49:04.106Z,12.77
2023-04-28T01:51:32.667Z,12.86
2023-04-28T01:54:00.328Z,12.93
2023-04-28T01:56:28.176Z,13.04
2023-04-28T01:58:59.080Z,13.26
2023-04-28T02:01:27.091Z,13.39
2023-04-28T02:03:56.136Z,13.47
2023-04-28T02:06:24.708Z,13.68
2023-04-28T02:08:52.326Z,13.77
2023-04-28T02:11:20.004Z,13.84
2023-04-28T02:13:48.034Z,13.82
2023-04-28T02:16:17.057Z,13.63
2023-04-28T02:18:44.652Z,13.73
2023-04-28T02:21:13.646Z,13.66
2023-04-28T02:23:41.563Z,13.66
2023-04-28T02:26:09.170Z,13.60
2023-04-28T02:28:36.981Z,13.47
2023-04-28T02:31:07.746Z,13.40
2023-04-28T02:33:37.545Z,13.09
2023-04-28T02:36:07.171Z,13.21
2023-04-28T02:38:35.037Z,13.18
2023-04-28T02:41:04.847Z,12.98
2023-04-28T02:43:32.834Z,12.98
2023-04-28T02:46:01.037Z,12.99
2023-04-28T02:48:28.870Z,12.82
2023-04-28T02:50:57.774Z,12.72
2023-04-28T02:53:25.591Z,12.50
2023-04-28T02:55:53.930Z,12.48
2023-04-28T02:58:21.836Z,12.37
2023-04-28T03:00:49.542Z,12.16
2023-04-28T03:03:18.416Z,11.97
2023-04-28T03:05:46.730Z,11.86
2023-04-28T03:08:15.676Z,11.87
2023-04-28T03:10:43.821Z,11.83
2023-04-28T03:13:12.509Z,11.83
2023-04-28T03:15:40.611Z,11.74
2023-04-28T03:18:08.311Z,11.71
2023-04-28T03:20:36.454Z,11.67
2023-04-28T03:23:04.390Z,11.67
2023-04-28T03:25:33.387Z,11.67
2023-04-28T03:28:01.878Z,11.45
2023-04-28T03:30:29.640Z,11.38
2023-04-28T03:32:58.996Z,11.43
2023-04-28T03:35:26.691Z,11.38
2023-04-28T03:37:54.479Z,11.35
2023-04-28T03:40:22.311Z,11.44
2023-04-28T03:43:24.064Z,11.41
2023-04-28T03:46:12.014Z,11.43
2023-04-28T03:48:39.734Z,11.34
2023-04-28T03:51:08.066Z,11.36
2023-04-28T03:53:35.725Z,11.37
2023-04-28T03:56:03.407Z,11.28
2023-04-28T03:58:32.404Z,11.26
2023-04-28T04:01:02.038Z,11.36
2023-04-28T04:03:29.852Z,11.36
2023-04-28T04:05:58.154Z,11.43
2023-04-28T04:08:26.056Z,11.48
2023-04-28T04:10:54.944Z,11.49
2023-04-28T04:13:22.824Z,11.51
2023-04-28T04:15:53.062Z,11.57
2023-04-28T04:18:22.924Z,11.53
2023-04-28T04:21:13.594Z,11.36
2023-04-28T04:23:41.336Z,11.45
2023-04-28T04:26:08.987Z,11.45
2023-04-28T04:28:37.440Z,11.44
2023-04-28T04:31:08.421Z,11.57
2023-04-28T04:33:37.284Z,11.52
2023-04-28T04:36:07.290Z,11.60
2023-04-28T04:38:34.955Z,11.72
2023-04-28T04:41:12.822Z,11.65
2023-04-28T04:43:40.867Z,11.51
2023-04-28T04:46:10.217Z,11.65
2023-04-28T04:48:38.098Z,11.85
2023-04-28T04:51:05.984Z,12.01
2023-04-28T04:53:34.225Z,12.10
2023-04-28T04:56:02.683Z,11.93
2023-04-28T04:58:30.758Z,11.91
2023-04-28T05:01:14.910Z,11.91
2023-04-28T05:03:43.306Z,11.87
2023-04-28T05:06:11.470Z,12.05
2023-04-28T05:08:45.785Z,12.11
2023-04-28T05:11:13.456Z,12.07
2023-04-28T05:13:42.541Z,12.01
2023-04-28T05:16:10.454Z,12.13
2023-04-28T05:19:17.811Z,12.25
2023-04-28T05:21:47.456Z,12.26
2023-04-28T05:24:15.385Z,12.23
2023-04-28T05:26:43.449Z,12.30
2023-04-28T05:29:11.610Z,12.34
2023-04-28T05:31:39.767Z,12.33
2023-04-28T05:34:07.716Z,12.34
2023-04-28T05:36:37.007Z,12.41
2023-04-28T05:39:06.930Z,12.39
2023-04-28T05:41:36.410Z,12.43
2023-04-28T05:44:04.344Z,12.32
2023-04-28T05:46:32.530Z,12.15
2023-04-28T05:49:01.842Z,12.22
2023-04-28T05:51:34.688Z,12.32
2023-04-28T05:54:04.537Z,12.34
2023-04-28T05:56:37.273Z,12.17
2023-04-28T05:59:04.960Z,12.39
2023-04-28T06:01:32.918Z,12.28
2023-04-28T06:04:01.035Z,12.11
2023-04-28T06:06:29.251Z,12.39
2023-04-28T06:08:57.105Z,12.39
2023-04-28T06:11:28.132Z,12.44
2023-04-28T06:13:55.781Z,12.39
2023-04-28T06:16:23.647Z,12.56
2023-04-28T06:18:52.011Z,12.42
2023-04-28T06:21:21.454Z,12.44
2023-04-28T06:23:49.273Z,12.47
2023-04-28T06:26:18.339Z,12.33
2023-04-28T06:28:47.639Z,12.32
2023-04-28T06:31:15.610Z,12.16
2023-04-28T06:33:43.312Z,12.20
2023-04-28T06:39:06.689Z,12.45
2023-04-28T06:41:35.517Z,12.29
2023-04-28T06:44:06.649Z,12.37
2023-04-28T06:46:35.770Z,12.35
2023-04-28T06:49:03.891Z,11.55
2023-04-28T06:51:32.870Z,12.39
2023-04-28T06:54:00.552Z,12.24
2023-04-28T06:56:28.805Z,12.20
2023-04-28T06:58:58.817Z,12.32
2023-04-28T07:01:27.960Z,12.29
2023-04-28T07:03:55.793Z,12.18
2023-04-28T07:06:23.833Z,12.39
2023-04-28T07:08:51.696Z,12.40
2023-04-28T07:11:19.406Z,12.26
2023-04-28T07:13:49.243Z,12.18
2023-04-28T07:16:17.026Z,11.93
2023-04-28T07:18:46.441Z,12.14
2023-04-28T07:21:14.099Z,12.37
2023-04-28T07:23:41.856Z,12.27
2023-04-28T07:26:09.746Z,12.30
2023-04-28T07:28:37.426Z,12.29
2023-04-28T07:31:05.140Z,12.36
2023-04-28T07:33:32.949Z,12.45
2023-04-28T07:36:02.276Z,12.40
2023-04-28T07:38:30.291Z,12.47
2023-04-28T07:40:58.263Z,12.34
2023-04-28T07:43:26.321Z,12.44
2023-04-28T07:45:54.237Z,12.52
2023-04-28T07:48:22.214Z,12.36
2023-04-28T07:50:49.980Z,12.48
2023-04-28T07:53:19.189Z,12.45
2023-04-28T07:55:46.997Z,12.62
2023-04-28T07:58:14.754Z,12.76
2023-04-28T08:00:42.441Z,12.58
2023-04-28T08:03:10.305Z,12.51
2023-04-28T08:05:39.663Z,12.42
2023-04-28T08:08:07.384Z,12.45
2023-04-28T08:10:36.381Z,12.75
2023-04-28T08:13:04.116Z,12.81
2023-04-28T08:15:31.932Z,12.89
2023-04-28T08:17:59.940Z,12.94
2023-04-28T08:20:27.679Z,13.00
2023-04-28T08:22:55.584Z,12.98
2023-04-28T08:25:23.700Z,12.99
2023-04-28T08:27:52.661Z,12.96
2023-04-28T08:30:20.417Z,13.15
2023-04-28T08:32:48.226Z,12.98
2023-04-28T08:35:16.281Z,13.23
2023-04-28T08:37:44.365Z,13.20
2023-04-28T08:40:12.785Z,13.11
2023-04-28T08:42:40.513Z,13.32
2023-04-28T08:45:14.413Z,13.29
2023-04-28T08:47:45.877Z,13.49
2023-04-28T08:50:15.283Z,13.47
2023-04-28T08:52:43.835Z,13.63
2023-04-28T08:55:13.766Z,13.79
2023-04-28T08:57:44.535Z,13.90
2023-04-28T09:00:14.601Z,13.84
2023-04-28T09:02:42.894Z,13.82
2023-04-28T09:05:12.499Z,13.91
2023-04-28T09:07:40.711Z,14.02
2023-04-28T09:10:22.511Z,13.86
2023-04-28T09:12:53.501Z,13.88
2023-04-28T09:15:33.360Z,13.94
2023-04-28T09:18:02.666Z,13.89
2023-04-28T09:20:32.953Z,14.15
2023-04-28T09:23:14.784Z,14.16
2023-04-28T09:25:55.981Z,14.10
2023-04-28T09:28:24.008Z,13.88
2023-04-28T09:30:53.037Z,14.00
2023-04-28T09:33:21.635Z,13.94
2023-04-28T09:35:49.600Z,13.81
2023-04-28T09:38:17.708Z,13.81
2023-04-28T09:40:56.672Z,13.67
2023-04-28T09:43:29.076Z,13.79
2023-04-28T09:45:59.900Z,13.87
2023-04-28T09:48:29.663Z,13.81
2023-04-28T09:50:59.348Z,13.68
2023-04-28T09:53:28.161Z,13.80
2023-04-28T09:55:57.316Z,13.77
2023-04-28T09:58:26.844Z,13.98
2023-04-28T10:00:56.051Z,14.06
2023-04-28T10:03:29.065Z,13.86
2023-04-28T10:05:58.237Z,13.77
2023-04-28T10:08:28.058Z,13.90
2023-04-28T10:10:56.851Z,13.99
2023-04-28T10:13:25.698Z,14.24
2023-04-28T10:15:55.362Z,14.02
2023-04-28T10:18:25.216Z,14.25
2023-04-28T10:20:57.405Z,14.32
2023-04-28T10:23:47.958Z,14.18
2023-04-28T10:26:19.205Z,14.22
2023-04-28T10:28:48.375Z,14.29
2023-04-28T10:31:17.882Z,14.41
2023-04-28T10:33:47.163Z,14.26
2023-04-28T10:36:49.068Z,14.50
2023-04-28T10:39:16.822Z,14.38
2023-04-28T10:41:47.103Z,14.30
2023-04-28T10:44:44.760Z,14.43
2023-04-28T10:47:12.780Z,14.30
2023-04-28T10:50:07.348Z,14.29
2023-04-28T10:52:51.027Z,14.49
2023-04-28T10:55:32.327Z,14.52
2023-04-28T10:58:36.160Z,14.61
2023-04-28T11:01:27.123Z,14.99
2023-04-28T11:04:03.175Z,15.52
2023-04-28T11:06:35.365Z,15.69
2023-04-28T11:09:04.662Z,15.60
2023-04-28T11:11:34.804Z,15.45
2023-04-28T11:14:36.525Z,15.23
2023-04-28T11:17:05.754Z,15.34
2023-04-28T11:19:35.279Z,15.30
2023-04-28T11:22:09.872Z,15.49
2023-04-28T11:24:37.534Z,15.39
2023-04-28T11:27:05.418Z,15.40
2023-04-28T11:29:35.092Z,15.03
2023-04-28T11:32:03.729Z,15.19
2023-04-28T11:34:31.846Z,15.00
2023-04-28T11:36:59.535Z,14.96
2023-04-28T11:39:30.086Z,14.85
2023-04-28T11:41:58.701Z,14.64
2023-04-28T11:44:27.692Z,14.72
2023-04-28T11:46:57.337Z,14.88
2023-04-28T11:49:25.877Z,14.90
2023-04-28T11:51:54.685Z,14.82
2023-04-28T11:54:23.958Z,14.73
2023-04-28T11:56:54.154Z,15.07
2023-04-28T11:59:27.120Z,15.00
2023-04-28T12:01:57.227Z,15.08
2023-04-28T12:04:29.885Z,15.00
2023-04-28T12:07:06.300Z,14.87
2023-04-28T12:09:34.862Z,14.79
2023-04-28T12:12:05.838Z,14.90
2023-04-28T12:14:35.623Z,15.11
2023-04-28T12:17:04.061Z,15.21
2023-04-28T12:19:44.729Z,15.23
2023-04-28T12:22:12.696Z,15.16
2023-04-28T12:24:40.939Z,15.12
2023-04-28T12:27:21.786Z,15.03
2023-04-28T12:29:49.800Z,15.02
2023-04-28T12:32:18.556Z,15.14
2023-04-28T12:34:47.370Z,15.27
2023-04-28T12:37:15.320Z,15.31
2023-04-28T12:39:43.680Z,15.34
2023-04-28T12:42:11.724Z,15.56
2023-04-28T12:44:40.833Z,15.76
2023-04-28T12:47:10.865Z,15.71
2023-04-28T12:49:39.177Z,15.53
2023-04-28T12:52:07.726Z,15.77
2023-04-28T12:54:35.713Z,15.92
2023-04-28T12:57:03.955Z,15.22
2023-04-28T12:59:32.652Z,15.83
2023-04-28T13:02:01.814Z,15.68
2023-04-28T13:04:30.148Z,15.70
2023-04-28T13:06:58.495Z,15.77
2023-04-28T13:09:26.755Z,15.69
2023-04-28T13:11:54.516Z,15.56
2023-04-28T13:14:22.268Z,15.54
2023-04-28T13:16:51.704Z,15.46
2023-04-28T13:19:20.682Z,15.59
2023-04-28T13:21:48.496Z,15.76
2023-04-28T13:24:16.353Z,15.83
2023-04-28T13:26:45.056Z,15.90
2023-04-28T13:29:14.330Z,15.80
2023-04-28T13:31:42.988Z,15.77
2023-04-28T13:34:15.902Z,15.81
2023-04-28T13:36:45.848Z,15.96
2023-04-28T13:39:14.713Z,15.95
2023-04-28T13:41:42.764Z,15.89
2023-04-28T13:44:10.645Z,15.85
2023-04-28T13:46:38.367Z,16.10
2023-04-28T13:49:06.161Z,16.17
2023-04-28T13:51:33.916Z,16.30
2023-04-28T13:54:04.442Z,16.13
2023-04-28T13:56:32.827Z,16.31
2023-04-28T13:59:00.757Z,16.35
2023-04-28T14:01:28.469Z,16.39
2023-04-28T14:03:56.505Z,16.38
2023-04-28T14:06:24.346Z,16.31
2023-04-28T14:08:52.042Z,16.30
2023-04-28T14:11:21.483Z,16.28
2023-04-28T14:13:49.125Z,16.11
2023-04-28T14:16:16.859Z,16.00
2023-04-28T14:18:44.597Z,16.04
2023-04-28T14:21:12.246Z,15.98
2023-04-28T14:23:39.939Z,16.02
2023-04-28T14:26:07.684Z,15.93
2023-04-28T14:28:37.402Z,15.96
2023-04-28T14:31:07.363Z,15.80
2023-04-28T14:33:35.325Z,15.79
2023-04-28T14:36:03.063Z,15.81
2023-04-28T14:38:31.229Z,15.78
2023-04-28T14:40:59.105Z,15.58
2023-04-28T14:43:26.794Z,15.61
2023-04-28T14:45:55.795Z,15.60
2023-04-28T14:48:23.593Z,15.73
2023-04-28T14:50:51.570Z,15.68
2023-04-28T14:53:19.300Z,15.65
2023-04-28T14:55:47.273Z,15.69
2023-04-28T14:58:15.324Z,15.95
2023-04-28T15:00:43.575Z,16.28
2023-04-28T15:03:12.830Z,16.62
2023-04-28T15:05:40.656Z,16.74
2023-04-28T15:08:08.371Z,16.90
2023-04-28T15:10:39.644Z,16.95
2023-04-28T15:13:07.566Z,17.03
2023-04-28T15:15:35.445Z,17.35
2023-04-28T15:18:04.171Z,17.67
2023-04-28T15:20:34.274Z,17.93
2023-04-28T15:23:02.011Z,18.12
2023-04-28T15:25:30.239Z,18.23
2023-04-28T15:27:58.989Z,18.10
2023-04-28T15:30:26.660Z,18.01
2023-04-28T15:32:54.364Z,18.23
2023-04-28T15:35:22.207Z,18.10
2023-04-28T15:37:53.181Z,18.16
2023-04-28T15:40:21.368Z,18.63
2023-04-28T15:42:51.529Z,18.89
2023-04-28T15:45:21.074Z,18.83
2023-04-28T15:47:50.165Z,19.19
2023-04-28T15:50:19.912Z,19.17
2023-04-28T15:52:50.048Z,19.25
2023-04-28T15:55:20.827Z,19.53
2023-04-28T15:57:49.559Z,19.49
2023-04-28T16:00:17.460Z,19.36
2023-04-28T16:02:45.953Z,19.03
2023-04-28T16:05:14.280Z,19.15
2023-04-28T16:07:42.017Z,19.10
2023-04-28T16:10:11.734Z,18.95
2023-04-28T16:12:41.861Z,18.85
2023-04-28T16:15:12.145Z,19.04
2023-04-28T16:17:40.721Z,19.12
2023-04-28T16:20:10.871Z,19.11
2023-04-28T16:22:41.784Z,18.96
2023-04-28T16:25:10.471Z,18.76
2023-04-28T16:27:41.386Z,18.56
2023-04-28T16:30:10.448Z,18.37
2023-04-28T16:32:38.568Z,18.53
2023-04-28T16:35:11.255Z,18.37
2023-04-28T16:37:41.131Z,18.21
2023-04-28T16:40:10.067Z,18.49
2023-04-28T16:42:37.954Z,18.66
2023-04-28T16:45:08.179Z,19.13
2023-04-28T16:47:35.982Z,19.11
2023-04-28T16:50:03.659Z,19.86
2023-04-28T16:52:31.774Z,20.49
2023-04-28T16:55:00.420Z,20.63
2023-04-28T16:57:28.181Z,21.22
2023-04-28T16:59:55.841Z,21.47
2023-04-28T17:02:25.320Z,21.17
2023-04-28T17:04:53.106Z,19.67
2023-04-28T17:07:20.789Z,18.98
2023-04-28T17:09:48.955Z,18.53
2023-04-28T17:12:16.800Z,18.18
2023-04-28T17:14:44.468Z,17.74
2023-04-28T17:17:12.111Z,17.69
2023-04-28T17:19:42.119Z,17.63
2023-04-28T17:22:09.799Z,17.69
2023-04-28T17:24:37.529Z,17.81
2023-04-28T17:27:05.194Z,17.80
2023-04-28T17:29:33.365Z,17.79
2023-04-28T17:32:01.225Z,17.74
2023-04-28T17:34:28.936Z,17.64
2023-04-28T17:36:58.012Z,17.64
2023-04-28T17:39:25.653Z,17.44
2023-04-28T17:41:54.118Z,17.14
2023-04-28T17:44:22.387Z,16.98
2023-04-28T17:46:50.183Z,16.91
2023-04-28T17:49:18.081Z,16.98
2023-04-28T17:51:45.783Z,16.88
2023-04-28T17:54:14.820Z,17.01
2023-04-28T17:56:42.465Z,16.67
2023-04-28T17:59:10.690Z,16.55
2023-04-28T18:01:38.407Z,16.38
2023-04-28T18:04:06.072Z,15.95
2023-04-28T18:06:33.784Z,15.85
2023-04-28T18:09:01.822Z,15.83
2023-04-28T18:11:30.937Z,15.82
2023-04-28T18:14:01.603Z,15.78
2023-04-28T18:16:29.376Z,15.74
2023-04-28T18:18:57.059Z,15.66
2023-04-28T18:21:24.849Z,15.65
2023-04-28T18:23:52.539Z,15.63
2023-04-28T18:26:20.884Z,15.58
2023-04-28T18:28:49.891Z,15.54
2023-04-28T18:31:17.578Z,15.47
2023-04-28T18:33:45.325Z,15.45
2023-04-28T18:36:13.133Z,15.56
2023-04-28T18:38:41.238Z,15.57
2023-04-28T18:41:16.094Z,15.45
2023-04-28T18:43:44.758Z,15.49
2023-04-28T18:46:13.953Z,15.20
2023-04-28T18:48:42.119Z,15.18
2023-04-28T18:51:09.928Z,15.06
2023-04-28T18:53:37.970Z,15.08
2023-04-28T18:56:05.763Z,14.82
2023-04-28T18:58:33.537Z,14.74
2023-04-28T19:01:01.304Z,14.74
2023-04-28T19:03:31.368Z,14.64
2023-04-28T19:05:59.766Z,14.51
2023-04-28T19:08:27.387Z,14.32
2023-04-28T19:10:55.062Z,14.31
2023-04-28T19:13:22.793Z,14.16
2023-04-28T19:15:53.464Z,13.95
2023-04-28T19:18:21.224Z,14.02
2023-04-28T19:20:52.097Z,13.95
2023-04-28T19:23:20.143Z,13.87
2023-04-28T19:25:48.360Z,13.85
2023-04-28T19:28:16.015Z,13.65
2023-04-28T19:30:43.734Z,13.70
2023-04-28T19:33:11.482Z,13.83
2023-04-28T19:35:39.489Z,13.77
2023-04-28T19:38:09.434Z,13.75
2023-04-28T19:40:37.120Z,13.65
2023-04-28T19:43:05.253Z,13.59
2023-04-28T19:45:34.724Z,13.73
2023-04-28T19:48:02.493Z,13.93
2023-04-28T19:50:30.275Z,13.79
2023-04-28T19:52:57.884Z,13.76
2023-04-28T19:55:27.215Z,13.66
2023-04-28T19:57:57.127Z,13.63
2023-04-28T20:00:25.512Z,13.70
2023-04-28T20:02:53.213Z,13.85
2023-04-28T20:05:21.383Z,13.78
2023-04-28T20:07:49.687Z,13.93
2023-04-28T20:10:19.069Z,13.73
2023-04-28T20:12:48.068Z,13.56
2023-04-28T20:15:16.647Z,13.54
2023-04-28T20:17:44.611Z,13.65
2023-04-28T20:20:12.722Z,13.61
2023-04-28T20:22:41.222Z,13.52
2023-04-28T20:25:10.714Z,13.54
2023-04-28T20:27:38.698Z,13.54
2023-04-28T20:30:09.747Z,13.61
2023-04-28T20:32:37.496Z,13.66
2023-04-28T20:35:06.110Z,13.59
2023-04-28T20:37:34.094Z,13.63
2023-04-28T20:40:01.797Z,13.60
2023-04-28T20:42:29.565Z,13.51
2023-04-28T20:44:57.293Z,13.47
2023-04-28T20:47:26.350Z,13.48
2023-04-28T20:49:54.196Z,13.58
2023-04-28T20:52:21.851Z,13.50
2023-04-28T20:54:49.754Z,13.51
2023-04-28T20:57:17.438Z,13.31
2023-04-28T20:59:45.061Z,13.27
2023-04-28T21:02:12.722Z,13.37
2023-04-28T21:04:41.888Z,13.45
2023-04-28T21:07:09.558Z,13.53
2023-04-28T21:09:37.497Z,13.50
2023-04-28T21:12:05.935Z,13.42
2023-04-28T21:14:35.694Z,13.47
2023-04-28T21:17:04.413Z,13.55
2023-04-28T21:19:32.264Z,13.49
2023-04-28T21:22:02.052Z,13.67
2023-04-28T21:24:29.961Z,13.85
2023-04-28T21:26:58.237Z,13.78
2023-04-28T21:29:27.522Z,13.90
2023-04-28T21:31:55.245Z,14.00
2023-04-28T21:34:22.993Z,14.10
2023-04-28T21:36:50.655Z,14.05
2023-04-28T21:39:19.770Z,14.02
2023-04-28T21:41:47.389Z,13.92
2023-04-28T21:44:15.616Z,13.87
2023-04-28T21:46:43.346Z,13.87
2023-04-28T21:49:10.958Z,13.86
2023-04-28T21:51:42.059Z,13.86
2023-04-28T21:54:09.790Z,13.89
2023-04-28T21:56:38.794Z,13.98
2023-04-28T21:59:06.468Z,14.00
2023-04-28T22:01:34.695Z,13.99
2023-04-28T22:04:03.666Z,13.96
2023-04-28T22:06:32.490Z,13.95
2023-04-28T22:09:01.289Z,14.00
2023-04-28T22:11:29.201Z,14.00
2023-04-28T22:13:58.209Z,14.17
2023-04-28T22:16:25.940Z,14.17
2023-04-28T22:18:53.886Z,14.15
2023-04-28T22:21:21.660Z,14.19
2023-04-28T22:23:49.491Z,14.23
2023-04-28T22:26:28.644Z,14.33
2023-04-28T22:28:57.598Z,14.36
2023-04-28T22:31:25.318Z,14.43
2023-04-28T22:33:53.038Z,14.43
2023-04-28T22:36:21.664Z,14.41
2023-04-28T22:38:49.422Z,14.35
2023-04-28T22:41:17.041Z,14.43
2023-04-28T22:43:44.713Z,14.48
2023-04-28T22:46:13.737Z,14.40
2023-04-28T22:48:42.184Z,14.34
2023-04-28T22:51:09.975Z,14.38
2023-04-28T22:53:37.664Z,14.37
2023-04-28T22:56:05.554Z,14.40
2023-04-28T22:58:33.216Z,14.42
2023-04-28T23:01:01.972Z,14.39
2023-04-28T23:03:31.040Z,14.37
2023-04-28T23:05:58.848Z,14.35
2023-04-28T23:08:26.550Z,14.35
2023-04-28T23:10:56.605Z,14.32
2023-04-28T23:13:25.002Z,14.36
2023-04-28T23:15:52.747Z,14.31
2023-04-28T23:18:20.770Z,14.34
2023-04-28T23:20:49.962Z,14.35
2023-04-28T23:23:17.903Z,14.35
2023-04-28T23:25:45.745Z,14.36
2023-04-28T23:28:13.502Z,14.34
2023-04-28T23:30:41.172Z,14.21
2023-04-28T23:33:09.133Z,14.13
2023-04-28T23:35:36.864Z,14.00
2023-04-28T23:38:06.537Z,14.00
2023-04-28T23:40:34.181Z,13.98
2023-04-28T23:43:02.273Z,13.87
2023-04-28T23:45:30.263Z,13.80
2023-04-28T23:47:58.286Z,13.70
2023-04-28T23:50:26.079Z,13.64
2023-04-28T23:53:29.282Z,13.53
2023-04-28T23:55:56.972Z,13.53
2023-04-28T23:58:24.607Z,13.45
